KSYI/SYI METAR and TAF weather

Enter ICAO airport designator
Station Type Date Time Source
KSYI METAR 2020/02/19 14:35 UTC NOAA

KSYI 191435Z AUTO 02008KT 8SM OVC013 04/02 A3041 RMK A01


Station Type Date Time Source
KSYI Decoded METAR 2020/02/19 14:35 UTC NOAA

Station name not available
Feb 19, 2020 - 09:35 AM EST / 2020.02.19 1435 UTC
Wind: from the NNE (020 degrees) at 9 MPH (8 KT):0
Visibility: 8 mile(s):0
Sky conditions: overcast
Temperature: 39 F (4 C)
Dew Point: 35 F (2 C)
Relative Humidity: 86%
Pressure (altimeter): 30.41 in. Hg (1029 hPa)
ob: KSYI 191435Z AUTO 02008KT 8SM OVC013 04/02 A3041 RMK A01
cycle: 14

Station Type Date Time Source
KSYI TAF UTC NOAA

Error!

Example: see airport list